地図

経路データ

SID SEASON NUMBER BASIN SUBBASIN NAME ISO_TIME NATURE LAT LON WMO_WIND WMO_PRES WMO_AGENCY TRACK_TYPE DIST2LAND LANDFALL IFLAG USA_AGENCY USA_ATCF_ID USA_LAT USA_LON USA_RECORD USA_STATUS USA_WIND USA_PRES USA_SSHS USA_R34_NE USA_R34_SE USA_R34_SW USA_R34_NW USA_R50_NE USA_R50_SE USA_R50_SW USA_R50_NW USA_R64_NE USA_R64_SE USA_R64_SW USA_R64_NW USA_POCI USA_ROCI USA_RMW USA_EYE TOKYO_LAT TOKYO_LON TOKYO_GRADE TOKYO_WIND TOKYO_PRES TOKYO_R50_DIR TOKYO_R50_LONG TOKYO_R50_SHORT TOKYO_R30_DIR TOKYO_R30_LONG TOKYO_R30_SHORT TOKYO_LAND CMA_LAT CMA_LON CMA_CAT CMA_WIND CMA_PRES HKO_LAT HKO_LON HKO_CAT HKO_WIND HKO_PRES NEWDELHI_LAT NEWDELHI_LON NEWDELHI_GRADE NEWDELHI_WIND NEWDELHI_PRES NEWDELHI_CI NEWDELHI_DP NEWDELHI_POCI REUNION_LAT REUNION_LON REUNION_TYPE REUNION_WIND REUNION_PRES REUNION_TNUM REUNION_CI REUNION_RMW REUNION_R34_NE REUNION_R34_SE REUNION_R34_SW REUNION_R34_NW REUNION_R50_NE REUNION_R50_SE REUNION_R50_SW REUNION_R50_NW REUNION_R64_NE REUNION_R64_SE REUNION_R64_SW REUNION_R64_NW BOM_LAT BOM_LON BOM_TYPE BOM_WIND BOM_PRES BOM_TNUM BOM_CI BOM_RMW BOM_R34_NE BOM_R34_SE BOM_R34_SW BOM_R34_NW BOM_R50_NE BOM_R50_SE BOM_R50_SW BOM_R50_NW BOM_R64_NE BOM_R64_SE BOM_R64_SW BOM_R64_NW BOM_ROCI BOM_POCI BOM_EYE BOM_POS_METHOD BOM_PRES_METHOD NADI_LAT NADI_LON NADI_CAT NADI_WIND NADI_PRES WELLINGTON_LAT WELLINGTON_LON WELLINGTON_WIND WELLINGTON_PRES DS824_LAT DS824_LON DS824_STAGE DS824_WIND DS824_PRES TD9636_LAT TD9636_LON TD9636_STAGE TD9636_WIND TD9636_PRES TD9635_LAT TD9635_LON TD9635_WIND TD9635_PRES TD9635_ROCI NEUMANN_LAT NEUMANN_LON NEUMANN_CLASS NEUMANN_WIND NEUMANN_PRES MLC_LAT MLC_LON MLC_CLASS MLC_WIND MLC_PRES USA_GUST BOM_GUST BOM_GUST_PER REUNION_GUST REUNION_GUST_PER USA_SEAHGT USA_SEARAD_NE USA_SEARAD_SE USA_SEARAD_SW USA_SEARAD_NW STORM_SPEED STORM_DIR
1940130S09073 1940 23 SI MM NOT_NAMED 1940-05-09 00:00:00 TS -8.50000 72.8000 main 1825 1825 _________O____ -1 -8.50000 72.8000 TC 25 7 262
1940130S09073 1940 23 SI MM NOT_NAMED 1940-05-09 03:00:00 TS -8.55261 72.4325 main 1856 1856 _________P____ -1 -8.55261 72.4325 TC 25 7 262
1940130S09073 1940 23 SI MM NOT_NAMED 1940-05-09 06:00:00 TS -8.60000 72.1000 main 1872 1872 _________O____ -1 -8.60000 72.1000 TC 25 6 262
1940130S09073 1940 23 SI MM NOT_NAMED 1940-05-09 09:00:00 TS -8.64240 71.8149 main 1888 1888 _________P____ -1 -8.64240 71.8149 TC 25 6 260
1940130S09073 1940 23 SI MM NOT_NAMED 1940-05-09 12:00:00 TS -8.70000 71.5000 main 1914 1914 _________O____ -1 -8.70000 71.5000 TC 25 8 259
1940130S09073 1940 23 SI MM NOT_NAMED 1940-05-09 15:00:00 TS -8.79254 71.0650 main 1917 1869 _________P____ -1 -8.79254 71.0650 TC 25 9 257
1940130S09073 1940 23 SI MM NOT_NAMED 1940-05-09 18:00:00 TS -8.90000 70.6000 main 1869 1829 _________O____ -1 -8.90000 70.6000 TC 25 9 256
1940130S09073 1940 23 SI MM NOT_NAMED 1940-05-09 21:00:00 TS -9.00748 70.1775 main 1829 1790 _________P____ -1 -9.00748 70.1775 TC 25 8 256
1940130S09073 1940 23 SI MM NOT_NAMED 1940-05-10 00:00:00 TS -9.10000 69.8000 main 1790 1759 _________O____ -1 -9.10000 69.8000 TC 25 7 258
1940130S09073 1940 23 SI MM NOT_NAMED 1940-05-10 03:00:00 TS -9.15743 69.4850 main 1759 1736 _________P____ -1 -9.15743 69.4850 TC 25 6 260
1940130S09073 1940 23 SI MM NOT_NAMED 1940-05-10 06:00:00 TS -9.20000 69.2000 main 1736 1713 _________O____ -1 -9.20000 69.2000 TC 25 6 262
1940130S09073 1940 23 SI MM NOT_NAMED 1940-05-10 09:00:00 TS -9.24249 68.8925 main 1713 1682 _________P____ -1 -9.24249 68.8925 TC 25 6 260
1940130S09073 1940 23 SI MM NOT_NAMED 1940-05-10 12:00:00 TS -9.30000 68.6000 main 1682 1659 _________O____ -1 -9.30000 68.6000 TC 25 6 254
1940130S09073 1940 23 SI MM NOT_NAMED 1940-05-10 15:00:00 TS -9.39997 68.3425 main 1652 1629 _________P____ -1 -9.39997 68.3425 TC 25 5 248
1940130S09073 1940 23 SI MM NOT_NAMED 1940-05-10 18:00:00 TS -9.50000 68.1000 main 1629 1606 _________O____ -1 -9.50000 68.1000 TC 25 5 252
1940130S09073 1940 23 SI MM NOT_NAMED 1940-05-10 21:00:00 TS -9.55747 67.8575 main 1606 1584 _________P____ -1 -9.55747 67.8575 TC 25 5 259
1940130S09073 1940 23 SI MM NOT_NAMED 1940-05-11 00:00:00 TS -9.60000 67.6000 main 1584 1563 _________O____ -1 -9.60000 67.6000 TC 25 5 261
1940130S09073 1940 23 SI MM NOT_NAMED 1940-05-11 03:00:00 TS -9.64249 67.3075 main 1563 1533 _________P____ -1 -9.64249 67.3075 TC 25 6 260
1940130S09073 1940 23 SI MM NOT_NAMED 1940-05-11 06:00:00 TS -9.70000 67.0000 main 1533 1503 _________O____ -1 -9.70000 67.0000 TC 25 6 255
1940130S09073 1940 23 SI MM NOT_NAMED 1940-05-11 09:00:00 TS -9.79997 66.7000 main 1503 1474 _________P____ -1 -9.79997 66.7000 TC 25 6 251
1940130S09073 1940 23 SI MM NOT_NAMED 1940-05-11 12:00:00 TS -9.90000 66.4000 main 1474 1454 _________O____ -1 -9.90000 66.4000 TC 25 6 256
1940130S09073 1940 23 SI MM NOT_NAMED 1940-05-11 15:00:00 TS -9.94997 66.1000 main 1454 1425 _________P____ -1 -9.94997 66.1000 TC 25 6 260
1940130S09073 1940 23 SI MM NOT_NAMED 1940-05-11 18:00:00 TS -10.0000 65.8000 main 1425 1397 _________O____ -1 -10.0000 65.8000 TC 25 6 256
1940130S09073 1940 23 SI MM NOT_NAMED 1940-05-11 21:00:00 TS -10.1000 65.4925 main 1397 1369 _________P____ -1 -10.1000 65.4925 TC 25 6 251
1940130S09073 1940 23 SI MM NOT_NAMED 1940-05-12 00:00:00 TS -10.2000 65.2000 main 1369 1347 _________O____ -1 -10.2000 65.2000 TC 25 6 254
1940130S09073 1940 23 SI MM NOT_NAMED 1940-05-12 03:00:00 TS -10.2575 64.9425 main 1341 1328 _________P____ -1 -10.2575 64.9425 TC 25 5 259
1940130S09073 1940 23 SI MM NOT_NAMED 1940-05-12 06:00:00 TS -10.3000 64.7000 main 1328 1317 _________O____ -1 -10.3000 64.7000 TC 25 5 260
1940130S09073 1940 23 SI MM NOT_NAMED 1940-05-12 09:00:00 TS -10.3425 64.4425 main 1311 1289 _________P____ -1 -10.3425 64.4425 TC 25 5 259
1940130S09073 1940 23 SI MM NOT_NAMED 1940-05-12 12:00:00 TS -10.4000 64.2000 main 1289 1268 _________O____ -1 -10.4000 64.2000 TC 25 5 250
1940130S09073 1940 23 SI MM NOT_NAMED 1940-05-12 15:00:00 TS -10.5000 64.0000 main 1268 1248 _________P____ -1 -10.5000 64.0000 TC 25 4 243
1940130S09073 1940 23 SI MM NOT_NAMED 1940-05-12 18:00:00 TS -10.6000 63.8000 main 1248 1227 _________O____ -1 -10.6000 63.8000 TC 25 5 250
1940130S09073 1940 23 SI MM NOT_NAMED 1940-05-12 21:00:00 TS -10.6575 63.5650 main 1227 1211 _________P____ -1 -10.6575 63.5650 TC 25 5 258
1940130S09073 1940 23 SI MM NOT_NAMED 1940-05-13 00:00:00 TS -10.7000 63.3000 main 1211 1195 _________O____ -1 -10.7000 63.3000 TC 25 6 260
1940130S09073 1940 23 SI MM NOT_NAMED 1940-05-13 03:00:00 TS -10.7500 63.0075 main 1195 1170 _________P____ -1 -10.7500 63.0075 TC 25 6 260
1940130S09073 1940 23 SI MM NOT_NAMED 1940-05-13 06:00:00 TS -10.8000 62.7000 main 1170 1146 _________O____ -1 -10.8000 62.7000 TC 25 6 260
1940130S09073 1940 23 SI MM NOT_NAMED 1940-05-13 09:00:00 TS -10.8575 62.3925 main 1146 1132 _________P____ -1 -10.8575 62.3925 TC 25 6 260
1940130S09073 1940 23 SI MM NOT_NAMED 1940-05-13 12:00:00 TS -10.9000 62.1000 main 1132 1119 _________O____ -1 -10.9000 62.1000 TC 25 5 266
1940130S09073 1940 23 SI MM NOT_NAMED 1940-05-13 15:00:00 TS -10.9000 61.8350 main 1119 1111 _________P____ -1 -10.9000 61.8350 TC 25 5 270
1940130S09073 1940 23 SI MM NOT_NAMED 1940-05-13 18:00:00 TS -10.9000 61.6000 main 1111 1103 _________O____ -1 -10.9000 61.6000 TC 25 4 264
1940130S09073 1940 23 SI MM NOT_NAMED 1940-05-13 21:00:00 TS -10.9425 61.4000 main 1103 1085 _________P____ -1 -10.9425 61.4000 TC 25 4 256
1940130S09073 1940 23 SI MM NOT_NAMED 1940-05-14 00:00:00 TS -11.0000 61.2000 main 1085 1078 _________O____ -1 -11.0000 61.2000 TC 25 4 256
1940130S09073 1940 23 SI MM NOT_NAMED 1940-05-14 03:00:00 TS -11.0500 60.9650 main 1078 1057 _________P____ -1 -11.0500 60.9650 TC 25 5 258
1940130S09073 1940 23 SI MM NOT_NAMED 1940-05-14 06:00:00 TS -11.1000 60.7000 main 1057 1047 _________O____ -1 -11.1000 60.7000 TC 25 6 260
1940130S09073 1940 23 SI MM NOT_NAMED 1940-05-14 09:00:00 TS -11.1500 60.3925 main 1037 1028 _________P____ -1 -11.1500 60.3925 TC 25 6 260
1940130S09073 1940 23 SI MM NOT_NAMED 1940-05-14 12:00:00 TS -11.2000 60.1000 main 1028 1012 _________O____ -1 -11.2000 60.1000 TC 25 5 258
1940130S09073 1940 23 SI MM NOT_NAMED 1940-05-14 15:00:00 TS -11.2575 59.8850 main 1012 1007 _________P____ -1 -11.2575 59.8850 TC 25 4 256
1940130S09073 1940 23 SI MM NOT_NAMED 1940-05-14 18:00:00 TS -11.3000 59.7000 main 1007 1003 _________O____ -1 -11.3000 59.7000 TC 25 4 262
1940130S09073 1940 23 SI MM NOT_NAMED 1940-05-14 21:00:00 TS -11.3075 59.5150 main 1003 999 _________P____ -1 -11.3075 59.5150 TC 25 4 270
1940130S09073 1940 23 SI MM NOT_NAMED 1940-05-15 00:00:00 TS -11.3000 59.3000 main 999 994 _________O____ -1 -11.3000 59.3000 TC 25 5 272
1940130S09073 1940 23 SI MM NOT_NAMED 1940-05-15 03:00:00 TS -11.2925 59.0075 main 994 974 _________P____ -1 -11.2925 59.0075 TC 25 6 270
1940130S09073 1940 23 SI MM NOT_NAMED 1940-05-15 06:00:00 TS -11.3000 58.7000 main 974 953 _________O____ -1 -11.3000 58.7000 TC 25 6 265
1940130S09073 1940 23 SI MM NOT_NAMED 1940-05-15 09:00:00 TS -11.3425 58.4425 main 942 918 _________P____ -1 -11.3425 58.4425 TC 25 5 258
1940130S09073 1940 23 SI MM NOT_NAMED 1940-05-15 12:00:00 TS -11.4000 58.2000 main 918 897 _________O____ -1 -11.4000 58.2000 TC 25 5 258
1940130S09073 1940 23 SI MM NOT_NAMED 1940-05-15 15:00:00 TS -11.4500 57.9425 main 887 863 _________P____ -1 -11.4500 57.9425 TC 25 5 258
1940130S09073 1940 23 SI MM NOT_NAMED 1940-05-15 18:00:00 TS -11.5000 57.7000 main 863 842 _________O____ -1 -11.5000 57.7000 TC 25 4 257
1940130S09073 1940 23 SI MM NOT_NAMED 1940-05-15 21:00:00 TS -11.5499 57.5075 main 842 818 _________P____ -1 -11.5499 57.5075 TC 25 4 256
1940130S09073 1940 23 SI MM NOT_NAMED 1940-05-16 00:00:00 TS -11.6000 57.3000 main 818 786 _________O____ -1 -11.6000 57.3000 TC 25 5 259
1940130S09073 1940 23 SI MM NOT_NAMED 1940-05-16 03:00:00 TS -11.6425 57.0150 main 786 752 _________P____ -1 -11.6425 57.0150 TC 25 6 260
1940130S09073 1940 23 SI MM NOT_NAMED 1940-05-16 06:00:00 TS -11.7000 56.7000 main 752 717 _________O____ -1 -11.7000 56.7000 TC 25 6 256
1940130S09073 1940 23 SI MM NOT_NAMED 1940-05-16 09:00:00 TS -11.8000 56.3850 main 717 683 _________P____ -1 -11.8000 56.3850 TC 25 6 251
1940130S09073 1940 23 SI MM NOT_NAMED 1940-05-16 12:00:00 TS -11.9000 56.1000 main 683 662 _________O____ -1 -11.9000 56.1000 TC 25 5 253
1940130S09073 1940 23 SI MM NOT_NAMED 1940-05-16 15:00:00 TS -11.9499 55.8849 main 662 638 _________P____ -1 -11.9499 55.8849 TC 25 4 256
1940130S09073 1940 23 SI MM NOT_NAMED 1940-05-16 18:00:00 TS -12.0000 55.7000 main 638 614 _________O____ -1 -12.0000 55.7000 TC 25 4 250
1940130S09073 1940 23 SI MM NOT_NAMED 1940-05-16 21:00:00 TS -12.0875 55.5051 main 614 590 _________P____ -1 -12.0875 55.5051 TC 25 4 243
1940130S09073 1940 23 SI MM NOT_NAMED 1940-05-17 00:00:00 TS -12.2000 55.3000 main 590 _________O____ -1 -12.2000 55.3000 TC 25 5 241

IBTrACS Databaseについて

本データベースは、米国NOAAが公開する1842年以降の世界の熱帯低気圧のベストトラックデータアーカイブInternational Best Track Archive for Climate Stewardship (IBTrACS)を、ウェブで閲覧しやすい形式に変換したものです。

最終更新日:2021-12-03